Time;durP1;ratioP1;P1;durP2;ratioP2;P2;SDS_P1;SDS_P2;PMS_P1;PMS_P2;Temp;Humidity;BMP_temperature;BMP_pressure;BME280_temperature;BME280_humidity;BME280_pressure;Samples;Min_cycle;Max_cycle;Signal;HPM_P1;HPM_P2
2020/12/23 00:02:07;;;;;;;7.05;4.10;;;;;;;;;;4955721;28;20069;-85
2020/12/23 00:04:34;;;;;;;8.23;4.18;;;;;;;;;;4988195;28;20047;-83
2020/12/23 00:07:00;;;;;;;5.60;4.50;;;;;;;;;;4988387;28;20047;-83
2020/12/23 00:09:26;;;;;;;5.55;3.72;;;;;;;;;;4986869;28;20050;-85
2020/12/23 00:11:53;;;;;;;9.80;4.38;;;;;;;;;;4972022;28;20043;-84
2020/12/23 00:14:19;;;;;;;6.28;4.05;;;;;;;;;;4986972;28;20046;-82
2020/12/23 00:16:45;;;;;;;7.40;4.28;;;;;;;;;;4987381;28;20054;-84
2020/12/23 00:19:12;;;;;;;6.32;4.15;;;;;;;;;;4986374;28;20053;-86
2020/12/23 00:21:38;;;;;;;7.05;4.57;;;;;;;;;;4986018;28;20047;-81
2020/12/23 00:24:04;;;;;;;6.22;4.80;;;;;;;;;;4986817;28;20042;-81
2020/12/23 00:26:30;;;;;;;7.07;4.28;;;;;;;;;;4986771;28;20448;-86
2020/12/23 00:28:57;;;;;;;8.63;4.68;;;;;;;;;;4985145;28;20212;-85
2020/12/23 00:31:23;;;;;;;6.95;4.47;;;;;;;;;;4968025;28;20074;-84
2020/12/23 00:33:49;;;;;;;9.18;4.95;;;;;;;;;;4966759;28;20135;-86
2020/12/23 00:36:15;;;;;;;11.73;5.00;;;;;;;;;;4965470;28;20051;-88
2020/12/23 00:38:42;;;;;;;6.20;4.30;;;;;;;;;;4984116;28;20061;-85
2020/12/23 00:41:11;;;;;;;6.15;4.50;;;;;;;;;;4984670;28;20051;-81
2020/12/23 00:43:37;;;;;;;9.80;4.57;;;;;;;;;;4986836;28;20735;-85
2020/12/23 00:46:09;;;;;;;7.22;3.97;;;;;;;;;;4987012;28;20080;-83
2020/12/23 00:48:35;;;;;;;7.30;4.13;;;;;;;;;;4987950;28;20047;-85
2020/12/23 00:51:05;;;;;;;7.28;4.60;;;;;;;;;;4970882;28;20047;-87
2020/12/23 00:53:31;;;;;;;6.88;4.35;;;;;;;;;;4986141;28;20043;-85
2020/12/23 00:55:58;;;;;;;7.65;5.57;;;;;;;;;;4986788;28;20494;-83
2020/12/23 00:58:24;;;;;;;8.52;5.18;;;;;;;;;;4987004;28;20448;-85
2020/12/23 01:00:53;;;;;;;11.90;5.22;;;;;;;;;;4986468;28;20060;-85
2020/12/23 01:03:19;;;;;;;8.77;5.72;;;;;;;;;;4961615;28;20410;-84
2020/12/23 01:05:45;;;;;;;10.32;5.07;;;;;;;;;;4975641;28;20050;-82
2020/12/23 01:08:11;;;;;;;9.05;5.90;;;;;;;;;;4960864;28;20042;-84
2020/12/23 01:10:37;;;;;;;9.63;5.47;;;;;;;;;;4963956;28;20038;-84
2020/12/23 01:13:03;;;;;;;7.85;5.18;;;;;;;;;;4982282;28;20039;-84
2020/12/23 01:15:29;;;;;;;10.88;4.97;;;;;;;;;;4984425;28;20042;-83
2020/12/23 01:17:55;;;;;;;9.40;4.88;;;;;;;;;;4985009;28;20102;-86
2020/12/23 01:20:21;;;;;;;9.60;4.32;;;;;;;;;;4985122;28;20103;-86
2020/12/23 01:22:47;;;;;;;8.82;4.10;;;;;;;;;;4985088;28;20045;-87
2020/12/23 01:25:13;;;;;;;10.57;4.35;;;;;;;;;;4986305;28;20039;-86
2020/12/23 01:27:42;;;;;;;5.55;3.58;;;;;;;;;;4969601;28;20134;-87
2020/12/23 01:30:08;;;;;;;9.93;4.15;;;;;;;;;;4986979;28;20042;-85
2020/12/23 01:32:34;;;;;;;7.95;3.95;;;;;;;;;;4987395;28;20131;-83
2020/12/23 01:35:00;;;;;;;10.55;3.92;;;;;;;;;;4985348;28;20047;-84
2020/12/23 01:37:26;;;;;;;6.75;3.78;;;;;;;;;;4986562;28;20046;-83
2020/12/23 01:39:53;;;;;;;10.23;3.97;;;;;;;;;;4985488;28;20115;-85
2020/12/23 01:42:19;;;;;;;11.15;4.32;;;;;;;;;;4985862;28;20105;-83
2020/12/23 01:44:45;;;;;;;8.00;3.60;;;;;;;;;;4985769;28;20054;-84
2020/12/23 01:47:16;;;;;;;9.18;4.00;;;;;;;;;;4986039;28;20042;-86
2020/12/23 01:49:42;;;;;;;8.07;4.30;;;;;;;;;;4984752;28;20043;-86
2020/12/23 01:52:08;;;;;;;8.00;4.40;;;;;;;;;;4986090;28;20045;-85
2020/12/23 01:54:36;;;;;;;9.90;4.80;;;;;;;;;;4986027;28;20039;-83
2020/12/23 01:57:02;;;;;;;11.88;5.28;;;;;;;;;;4984789;28;20046;-84
2020/12/23 01:59:28;;;;;;;13.35;6.57;;;;;;;;;;4980841;28;20051;-84
2020/12/23 02:02:17;;;;;;;16.25;6.55;;;;;;;;;;4976562;28;20186;-85
2020/12/23 02:04:43;;;;;;;17.52;7.38;;;;;;;;;;4975406;28;20059;-82
2020/12/23 02:07:09;;;;;;;18.25;7.30;;;;;;;;;;4981568;28;20039;-83
2020/12/23 02:09:36;;;;;;;12.77;6.75;;;;;;;;;;4980781;28;20101;-84
2020/12/23 02:12:02;;;;;;;17.63;6.82;;;;;;;;;;4981186;28;20034;-85
2020/12/23 02:14:28;;;;;;;12.27;6.72;;;;;;;;;;4978354;28;20054;-84
2020/12/23 02:16:55;;;;;;;14.43;7.15;;;;;;;;;;4970815;28;20163;-84
2020/12/23 02:19:21;;;;;;;15.50;6.78;;;;;;;;;;4956023;28;20085;-84
2020/12/23 02:21:47;;;;;;;16.33;6.97;;;;;;;;;;4994972;28;20023;-80
2020/12/23 02:24:14;;;;;;;14.55;6.82;;;;;;;;;;4996342;28;20026;-81
2020/12/23 02:26:40;;;;;;;11.88;7.15;;;;;;;;;;4996277;28;20098;-82
2020/12/23 02:29:06;;;;;;;12.02;6.43;;;;;;;;;;4996261;28;20322;-80
2020/12/23 02:31:32;;;;;;;15.40;6.20;;;;;;;;;;4996175;28;20311;-81
2020/12/23 02:33:59;;;;;;;14.77;5.95;;;;;;;;;;4995928;28;20031;-80
2020/12/23 02:36:26;;;;;;;16.85;6.25;;;;;;;;;;4995563;28;20058;-80
2020/12/23 02:38:52;;;;;;;15.18;6.05;;;;;;;;;;4994313;28;20042;-82
2020/12/23 02:41:18;;;;;;;12.88;5.35;;;;;;;;;;4985467;28;20070;-85
2020/12/23 02:43:47;;;;;;;13.80;5.70;;;;;;;;;;4985043;28;20038;-84
2020/12/23 02:46:13;;;;;;;18.42;6.40;;;;;;;;;;4982511;28;20050;-85
2020/12/23 02:48:39;;;;;;;18.02;6.85;;;;;;;;;;4964867;28;20074;-85
2020/12/23 02:51:06;;;;;;;19.55;6.22;;;;;;;;;;4982261;28;20046;-84
2020/12/23 02:53:32;;;;;;;19.42;7.55;;;;;;;;;;4980710;28;20047;-84
2020/12/23 02:56:01;;;;;;;21.65;7.75;;;;;;;;;;4980164;28;20061;-85
2020/12/23 02:58:28;;;;;;;15.02;6.00;;;;;;;;;;4978993;28;20183;-85
2020/12/23 03:00:58;;;;;;;13.68;4.50;;;;;;;;;;4961662;28;20070;-85
2020/12/23 03:03:24;;;;;;;9.70;3.60;;;;;;;;;;4944693;28;20435;-85
2020/12/23 03:05:50;;;;;;;11.95;3.75;;;;;;;;;;4961256;28;20098;-84
2020/12/23 03:08:16;;;;;;;12.10;3.33;;;;;;;;;;4959571;28;20446;-82
2020/12/23 03:10:44;;;;;;;12.75;3.83;;;;;;;;;;4960200;28;20035;-84
2020/12/23 03:13:12;;;;;;;13.02;3.97;;;;;;;;;;4975984;28;20031;-84
2020/12/23 03:15:44;;;;;;;13.48;4.47;;;;;;;;;;4977872;28;20507;-83
2020/12/23 03:18:11;;;;;;;12.70;4.32;;;;;;;;;;4986862;28;20039;-82
2020/12/23 03:20:38;;;;;;;11.23;3.60;;;;;;;;;;4961076;28;20558;-83
2020/12/23 03:23:04;;;;;;;7.82;2.90;;;;;;;;;;4963743;28;20042;-84
2020/12/23 03:25:30;;;;;;;6.97;3.30;;;;;;;;;;4981212;28;20053;-84
2020/12/23 03:27:57;;;;;;;8.68;3.33;;;;;;;;;;4980305;28;20292;-84
2020/12/23 03:30:23;;;;;;;10.10;3.13;;;;;;;;;;4981180;28;20079;-83
2020/12/23 03:32:49;;;;;;;7.00;2.85;;;;;;;;;;4947590;28;20134;-84
2020/12/23 03:35:18;;;;;;;7.65;2.72;;;;;;;;;;4980404;28;20570;-84
2020/12/23 03:37:44;;;;;;;10.07;3.50;;;;;;;;;;4963681;28;20051;-83
2020/12/23 03:40:16;;;;;;;17.42;5.80;;;;;;;;;;4980088;28;20043;-84
2020/12/23 03:42:43;;;;;;;12.02;6.30;;;;;;;;;;4963264;28;20039;-83
2020/12/23 03:45:09;;;;;;;16.67;7.45;;;;;;;;;;4965091;28;20038;-84
2020/12/23 03:47:35;;;;;;;16.45;8.00;;;;;;;;;;4982533;28;20046;-83
2020/12/23 03:50:03;;;;;;;18.13;7.88;;;;;;;;;;4966631;28;20824;-83
2020/12/23 03:52:32;;;;;;;17.98;7.70;;;;;;;;;;4982709;28;20034;-84
2020/12/23 03:54:58;;;;;;;14.18;7.45;;;;;;;;;;4966249;28;20410;-85
2020/12/23 03:57:25;;;;;;;14.52;6.80;;;;;;;;;;4965147;28;20047;-84
2020/12/23 03:59:51;;;;;;;15.88;6.32;;;;;;;;;;4983982;28;20061;-85
2020/12/23 04:02:17;;;;;;;12.18;5.40;;;;;;;;;;4984292;28;20221;-84
2020/12/23 04:04:43;;;;;;;14.57;5.15;;;;;;;;;;4985620;28;20082;-83
2020/12/23 04:09:41;;;;;;;14.15;5.53;;;;;;;;;;4959170;29;20138;-81
2020/12/23 04:12:07;;;;;;;15.85;6.35;;;;;;;;;;4960058;29;20047;-82
2020/12/23 04:14:34;;;;;;;11.13;5.50;;;;;;;;;;4959360;29;20098;-80
2020/12/23 04:17:00;;;;;;;12.68;5.15;;;;;;;;;;4959343;29;20066;-82
2020/12/23 04:19:26;;;;;;;14.35;5.35;;;;;;;;;;4958285;29;20074;-81
2020/12/23 04:21:52;;;;;;;19.13;5.55;;;;;;;;;;4960563;29;20070;-81
2020/12/23 04:24:19;;;;;;;11.25;5.07;;;;;;;;;;4959517;28;20414;-82
2020/12/23 04:26:45;;;;;;;8.32;3.60;;;;;;;;;;4959164;29;20047;-81
2020/12/23 04:29:11;;;;;;;8.10;4.10;;;;;;;;;;4928851;29;20142;-80
2020/12/23 04:31:38;;;;;;;12.02;3.22;;;;;;;;;;4958919;28;20107;-80
2020/12/23 04:34:05;;;;;;;7.32;3.20;;;;;;;;;;4959022;29;20054;-80
2020/12/23 04:36:31;;;;;;;11.18;3.13;;;;;;;;;;4942091;29;20054;-80
2020/12/23 04:38:58;;;;;;;12.18;3.17;;;;;;;;;;4959717;29;20134;-81
2020/12/23 04:41:26;;;;;;;9.15;2.30;;;;;;;;;;4958331;29;20058;-81
2020/12/23 04:43:52;;;;;;;7.43;2.28;;;;;;;;;;4960272;29;20043;-81
2020/12/23 04:46:21;;;;;;;6.28;2.10;;;;;;;;;;4955382;29;20047;-81
2020/12/23 04:48:51;;;;;;;6.28;2.08;;;;;;;;;;4943952;29;20048;-80
2020/12/23 04:51:18;;;;;;;5.13;1.83;;;;;;;;;;4949036;28;20047;-81
2020/12/23 04:53:48;;;;;;;4.30;1.88;;;;;;;;;;4943635;29;20044;-81
2020/12/23 04:56:20;;;;;;;4.20;1.92;;;;;;;;;;4943142;29;20077;-81
2020/12/23 04:58:51;;;;;;;6.15;1.60;;;;;;;;;;4960417;29;20051;-81
2020/12/23 05:01:17;;;;;;;5.70;1.40;;;;;;;;;;4942815;29;20047;-80
2020/12/23 05:03:44;;;;;;;4.47;1.15;;;;;;;;;;4939390;29;20044;-80
2020/12/23 05:06:14;;;;;;;2.85;1.05;;;;;;;;;;4939318;29;20040;-80
2020/12/23 05:08:40;;;;;;;4.65;1.30;;;;;;;;;;4939214;29;20140;-80
2020/12/23 05:11:07;;;;;;;6.20;1.23;;;;;;;;;;4924605;29;20122;-80
2020/12/23 05:13:42;;;;;;;2.00;1.00;;;;;;;;;;4924728;29;20440;-82
2020/12/23 05:16:11;;;;;;;6.22;1.13;;;;;;;;;;4940067;29;20050;-80
2020/12/23 05:18:41;;;;;;;4.25;1.05;;;;;;;;;;4923567;29;20103;-80
2020/12/23 05:21:15;;;;;;;7.45;1.20;;;;;;;;;;4939549;29;20060;-80
2020/12/23 05:23:48;;;;;;;3.75;1.10;;;;;;;;;;4915129;29;20059;-81
2020/12/23 05:26:17;;;;;;;6.32;1.27;;;;;;;;;;4931343;29;20062;-80
2020/12/23 05:28:46;;;;;;;3.22;1.20;;;;;;;;;;4947500;29;20055;-82
2020/12/23 05:31:17;;;;;;;3.80;1.02;;;;;;;;;;4942055;29;20035;-80
2020/12/23 05:33:44;;;;;;;4.35;1.10;;;;;;;;;;4953024;29;20043;-80
2020/12/23 05:36:16;;;;;;;4.45;1.10;;;;;;;;;;4972755;29;20039;-78
2020/12/23 05:38:44;;;;;;;4.63;1.50;;;;;;;;;;4948093;29;20054;-82
2020/12/23 05:41:12;;;;;;;2.95;1.20;;;;;;;;;;4966935;29;20094;-80
2020/12/23 05:43:39;;;;;;;5.10;1.30;;;;;;;;;;4963237;28;20130;-82
2020/12/23 05:46:08;;;;;;;6.05;1.50;;;;;;;;;;4960136;29;20039;-82
2020/12/23 05:48:37;;;;;;;4.65;1.75;;;;;;;;;;4942293;29;20093;-82
2020/12/23 05:51:07;;;;;;;6.95;1.40;;;;;;;;;;4957108;29;20154;-80
2020/12/23 05:53:36;;;;;;;4.00;1.42;;;;;;;;;;4942824;29;20047;-82
2020/12/23 05:56:05;;;;;;;3.88;1.42;;;;;;;;;;4959520;29;20081;-83
2020/12/23 05:58:34;;;;;;;6.78;1.55;;;;;;;;;;4960246;29;20067;-81
2020/12/23 06:01:09;;;;;;;5.40;1.40;;;;;;;;;;4959179;29;20047;-82
2020/12/23 06:03:49;;;;;;;4.93;1.63;;;;;;;;;;4959293;29;20422;-82
2020/12/23 06:06:20;;;;;;;7.43;1.40;;;;;;;;;;4962465;29;20043;-79
2020/12/23 06:08:49;;;;;;;5.65;1.50;;;;;;;;;;4959120;29;20107;-82
2020/12/23 06:11:15;;;;;;;4.45;1.58;;;;;;;;;;4958424;29;20046;-81
2020/12/23 06:13:53;;;;;;;6.78;1.70;;;;;;;;;;4957161;28;20059;-81
2020/12/23 06:16:28;;;;;;;7.28;1.60;;;;;;;;;;4957654;29;20058;-81
2020/12/23 06:18:56;;;;;;;3.83;1.40;;;;;;;;;;4941108;29;20074;-81
2020/12/23 06:21:25;;;;;;;5.90;1.75;;;;;;;;;;4958704;29;20384;-81
2020/12/23 06:23:59;;;;;;;6.18;1.85;;;;;;;;;;4958078;29;20129;-80
2020/12/23 06:26:28;;;;;;;5.72;1.70;;;;;;;;;;4960883;29;20047;-78
2020/12/23 06:28:59;;;;;;;4.60;1.83;;;;;;;;;;4970285;29;20047;-79
2020/12/23 06:31:27;;;;;;;6.97;2.00;;;;;;;;;;4971285;29;20522;-80
2020/12/23 06:33:53;;;;;;;5.82;1.70;;;;;;;;;;4969298;29;20103;-79
2020/12/23 06:36:19;;;;;;;4.35;1.55;;;;;;;;;;4968930;29;20070;-79
2020/12/23 06:44:15;;;;;;;6.03;1.83;;;;;;;;;;4991391;28;20042;-79
2020/12/23 06:47:27;;;;;;;10.05;1.92;;;;;;;;;;4986941;28;20537;-78
2020/12/23 06:50:30;;;;;;;9.07;2.10;;;;;;;;;;4976046;28;20042;-80
2020/12/23 06:54:03;;;;;;;6.88;2.17;;;;;;;;;;4929400;29;20448;-78
2020/12/23 06:57:27;;;;;;;5.53;1.70;;;;;;;;;;4863568;29;20425;-80
2020/12/23 07:01:16;;;;;;;;;;;;;;;;;;;;;
2020/12/23 07:04:40;;;;;;;5.75;2.10;;;;;;;;;;4804749;29;20125;-80
2020/12/23 07:11:14;;;;;;;;;;;;;;;;;;;;;
2020/12/23 07:14:37;;;;;;;6.43;2.20;;;;;;;;;;4804575;29;19924;-83
2020/12/23 07:17:53;;;;;;;8.52;2.25;;;;;;;;;;4813183;29;20053;-82
2020/12/23 07:25:47;;;;;;;;;;;;;;;;;;;;;
2020/12/23 07:28:38;;;;;;;7.05;3.38;;;;;;;;;;4864509;29;20793;-79
2020/12/23 07:35:34;;;;;;;;;;;;;;;;;;;;;
2020/12/23 07:39:02;;;;;;;;;;;;;;;;;;;;;
2020/12/23 07:46:12;;;;;;;;;;;;;;;;;;;;;
2020/12/23 08:01:00;;;;;;;8.05;2.58;;;;;;;;;;4994498;28;20126;-86
2020/12/23 08:03:51;;;;;;;6.07;2.33;;;;;;;;;;4981263;28;20046;-88
2020/12/23 08:06:25;;;;;;;6.32;2.45;;;;;;;;;;4963428;28;20134;-87
2020/12/23 08:08:54;;;;;;;12.57;3.50;;;;;;;;;;4950477;28;20043;-87
2020/12/23 08:15:50;;;;;;;12.68;4.82;;;;;;;;;;4960253;28;20493;-79
2020/12/23 08:18:50;;;;;;;13.05;4.30;;;;;;;;;;5005573;28;20444;-79
2020/12/23 08:21:41;;;;;;;9.95;4.57;;;;;;;;;;4995918;28;20117;-80
2020/12/23 08:24:36;;;;;;;9.00;4.50;;;;;;;;;;4993883;28;20037;-80
2020/12/23 08:27:21;;;;;;;13.05;4.85;;;;;;;;;;4985684;28;20046;-79
2020/12/23 08:34:08;;;;;;;15.25;7.07;;;;;;;;;;4962083;28;20046;-80
2020/12/23 08:37:59;;;;;;;16.13;6.75;;;;;;;;;;4995511;28;20418;-80
2020/12/23 08:41:32;;;;;;;12.00;5.95;;;;;;;;;;4988376;28;20162;-82
2020/12/23 08:45:17;;;;;;;;;;;;;;;;;;;;;
2020/12/23 08:48:21;;;;;;;10.10;5.00;;;;;;;;;;4877006;29;20202;-81
2020/12/23 08:51:19;;;;;;;11.45;5.07;;;;;;;;;;4791425;29;20158;-79
2020/12/23 09:01:03;;;;;;;18.98;7.18;;;;;;;;;;4826112;29;20054;-79
2020/12/23 09:04:40;;;;;;;;;;;;;;;;;;;;;
2020/12/23 09:08:11;;;;;;;15.65;7.32;;;;;;;;;;4845088;29;20396;-81
2020/12/23 09:11:46;;;;;;;12.93;7.10;;;;;;;;;;4844611;29;20056;-79
2020/12/23 09:19:18;;;;;;;12.25;7.38;;;;;;;;;;4818818;29;20061;-80
2020/12/23 09:22:19;;;;;;;;;;;;;;;;;;;;;
2020/12/23 09:25:48;;;;;;;11.93;7.07;;;;;;;;;;4941840;28;20074;-81
2020/12/23 09:29:07;;;;;;;14.63;6.60;;;;;;;;;;4991205;28;20533;-80
2020/12/23 09:32:04;;;;;;;17.45;7.40;;;;;;;;;;4960698;28;20047;-79
2020/12/23 09:39:45;;;;;;;12.80;6.78;;;;;;;;;;4930291;28;20043;-79
2020/12/23 09:42:26;;;;;;;11.75;6.25;;;;;;;;;;4992565;28;20118;-79
2020/12/23 09:45:14;;;;;;;14.68;7.00;;;;;;;;;;4993948;28;20042;-80
2020/12/23 09:48:31;;;;;;;16.05;6.32;;;;;;;;;;4916513;29;20059;-79
2020/12/23 10:13:04;;;;;;;;;;;;;;;;;;;;;
2020/12/23 10:16:38;;;;;;;3.53;1.75;;;;;;;;;;4976639;28;20498;-82
2020/12/23 10:24:29;;;;;;;3.25;1.08;;;;;;;;;;4890450;29;20532;-79
2020/12/23 10:27:51;;;;;;;;;;;;;;;;;;4889569;29;20516;-79
2020/12/23 10:30:33;;;;;;;3.65;0.90;;;;;;;;;;4913323;29;19967;-79
2020/12/23 10:33:42;;;;;;;2.28;1.00;;;;;;;;;;4938993;29;20118;-77
2020/12/23 10:36:32;;;;;;;2.05;0.80;;;;;;;;;;4954560;28;20051;-80
2020/12/23 10:39:17;;;;;;;1.20;0.85;;;;;;;;;;4974144;28;20529;-77
2020/12/23 10:42:21;;;;;;;1.52;0.60;;;;;;;;;;4977879;28;20043;-78
2020/12/23 10:52:39;;;;;;;2.40;0.82;;;;;;;;;;4882149;28;20055;-78
2020/12/23 10:56:02;;;;;;;1.92;0.60;;;;;;;;;;4994128;28;20054;-80
2020/12/23 10:58:49;;;;;;;2.45;0.70;;;;;;;;;;4937985;29;20530;-79
2020/12/23 11:02:11;;;;;;;1.33;0.57;;;;;;;;;;4933069;29;20047;-79
2020/12/23 11:05:23;;;;;;;1.38;0.68;;;;;;;;;;4903435;29;20043;-80
2020/12/23 11:09:18;;;;;;;;;;;;;;;;;;;;;
2020/12/23 11:16:45;;;;;;;;;;;;;;;;;;;;;
2020/12/23 11:20:10;;;;;;;1.70;0.68;;;;;;;;;;4951944;28;20040;-82
2020/12/23 11:23:04;;;;;;;0.93;0.50;;;;;;;;;;4938320;29;20889;-78
2020/12/23 11:26:13;;;;;;;0.90;0.50;;;;;;;;;;4925441;29;20122;-81
2020/12/23 11:32:55;;;;;;;1.40;0.50;;;;;;;;;;4910492;29;20342;-82
2020/12/23 11:36:43;;;;;;;1.35;0.50;;;;;;;;;;4863138;29;20036;-79
2020/12/23 11:40:05;;;;;;;;;;;;;;;;;;;;;
2020/12/23 11:43:32;;;;;;;2.35;0.70;;;;;;;;;;4915831;29;20072;-82
2020/12/23 11:46:53;;;;;;;4.43;0.43;;;;;;;;;;4923225;29;20068;-79
2020/12/23 11:49:47;;;;;;;2.83;0.55;;;;;;;;;;4917083;29;20044;-80
2020/12/23 11:52:47;;;;;;;1.80;0.40;;;;;;;;;;4919522;29;20412;-80
2020/12/23 11:56:03;;;;;;;0.68;0.40;;;;;;;;;;4909113;29;20055;-80
2020/12/23 12:02:30;;;;;;;2.70;0.70;;;;;;;;;;4999512;28;20437;-80
2020/12/23 12:05:57;;;;;;;2.78;0.52;;;;;;;;;;4982535;28;20046;-79
2020/12/23 12:12:04;;;;;;;0.50;0.43;;;;;;;;;;4888515;29;20903;-79
2020/12/23 12:15:04;;;;;;;1.90;0.50;;;;;;;;;;4890989;29;20238;-83
2020/12/23 12:18:31;;;;;;;1.35;0.50;;;;;;;;;;4895817;29;20135;-81
2020/12/23 12:21:37;;;;;;;1.05;0.52;;;;;;;;;;4808727;29;20056;-82
2020/12/23 12:25:29;;;;;;;3.40;1.10;;;;;;;;;;4806064;29;20071;-80
2020/12/23 12:40:20;;;;;;;2.38;0.70;;;;;;;;;;4829121;23;20419;-88
2020/12/23 12:42:47;;;;;;;1.67;0.70;;;;;;;;;;4963969;28;20057;-84
2020/12/23 12:45:13;;;;;;;0.93;0.57;;;;;;;;;;4979256;28;20093;-84
2020/12/23 12:48:21;;;;;;;;;;;;;;;;;;;;;
2020/12/23 12:51:32;;;;;;;2.38;0.63;;;;;;;;;;4916852;29;20052;-85
2020/12/23 12:54:07;;;;;;;0.88;0.60;;;;;;;;;;4883458;29;20067;-84
2020/12/23 12:56:44;;;;;;;2.65;0.88;;;;;;;;;;4894590;29;20081;-89
2020/12/23 12:59:17;;;;;;;1.25;0.80;;;;;;;;;;4896188;29;20044;-85
2020/12/23 13:02:37;;;;;;;5.65;0.90;;;;;;;;;;4880856;29;20089;-87
2020/12/23 13:06:10;;;;;;;2.70;1.00;;;;;;;;;;4899893;29;20056;-86
2020/12/23 13:09:15;;;;;;;2.17;0.85;;;;;;;;;;5019612;23;20054;-79
2020/12/23 13:11:41;;;;;;;2.50;1.63;;;;;;;;;;5025912;28;20037;-79
2020/12/23 13:14:08;;;;;;;2.92;0.90;;;;;;;;;;5034085;28;20109;-78
2020/12/23 13:16:34;;;;;;;2.30;0.93;;;;;;;;;;5034508;28;20033;-79
2020/12/23 13:19:01;;;;;;;6.05;1.00;;;;;;;;;;5013977;28;20057;-78
2020/12/23 13:21:28;;;;;;;3.25;0.70;;;;;;;;;;5033585;28;20060;-78
2020/12/23 13:23:54;;;;;;;3.28;0.82;;;;;;;;;;5018171;28;20311;-78
2020/12/23 13:26:23;;;;;;;3.50;0.75;;;;;;;;;;5014812;28;20223;-78
2020/12/23 13:28:52;;;;;;;1.75;0.60;;;;;;;;;;5000977;28;20050;-80
2020/12/23 13:31:22;;;;;;;1.45;0.73;;;;;;;;;;4976747;28;20051;-80
2020/12/23 13:33:48;;;;;;;1.88;0.70;;;;;;;;;;4976362;28;20279;-80
2020/12/23 13:36:14;;;;;;;1.63;0.52;;;;;;;;;;4974432;28;20051;-80
2020/12/23 13:38:40;;;;;;;2.50;0.80;;;;;;;;;;4973086;28;20050;-79
2020/12/23 13:41:14;;;;;;;2.83;0.80;;;;;;;;;;4975129;28;20046;-80
2020/12/23 13:43:41;;;;;;;1.33;0.90;;;;;;;;;;4974038;28;20047;-80
2020/12/23 13:46:11;;;;;;;1.48;1.10;;;;;;;;;;4972568;28;20043;-79
2020/12/23 13:48:37;;;;;;;3.35;1.08;;;;;;;;;;4972752;28;20560;-79
2020/12/23 13:51:03;;;;;;;2.65;1.05;;;;;;;;;;4974058;28;20127;-80
2020/12/23 13:53:30;;;;;;;2.28;1.10;;;;;;;;;;4974536;28;20042;-80
2020/12/23 13:55:56;;;;;;;1.88;1.20;;;;;;;;;;4996214;28;20410;-80
2020/12/23 13:58:23;;;;;;;2.25;1.40;;;;;;;;;;4996133;28;20061;-80
2020/12/23 14:00:49;;;;;;;6.05;3.17;;;;;;;;;;4999371;28;20069;-80
2020/12/23 14:03:15;;;;;;;1.85;1.10;;;;;;;;;;4997336;28;20097;-79
2020/12/23 14:05:42;;;;;;;2.20;1.30;;;;;;;;;;4993539;28;20049;-80
2020/12/23 14:08:08;;;;;;;4.88;1.80;;;;;;;;;;4995180;28;20046;-80
2020/12/23 14:10:39;;;;;;;2.47;1.52;;;;;;;;;;4989046;28;20042;-80
2020/12/23 14:13:06;;;;;;;3.47;2.53;;;;;;;;;;4993477;28;20045;-78
2020/12/23 14:15:33;;;;;;;2.65;2.10;;;;;;;;;;4992751;28;20034;-78
2020/12/23 14:17:59;;;;;;;2.83;2.15;;;;;;;;;;4997609;28;20421;-79
2020/12/23 14:20:25;;;;;;;4.20;2.42;;;;;;;;;;5008766;28;20042;-79
2020/12/23 14:22:51;;;;;;;4.90;2.63;;;;;;;;;;4994184;28;20053;-79
2020/12/23 14:25:17;;;;;;;4.07;2.35;;;;;;;;;;4992418;28;20511;-79
2020/12/23 14:27:43;;;;;;;3.97;2.33;;;;;;;;;;5005682;28;20066;-80
2020/12/23 14:30:09;;;;;;;3.88;2.58;;;;;;;;;;4989650;28;20054;-79
2020/12/23 14:32:36;;;;;;;4.70;2.25;;;;;;;;;;4992755;28;20040;-80
2020/12/23 14:35:02;;;;;;;5.38;2.60;;;;;;;;;;4974834;28;20042;-80
2020/12/23 14:37:29;;;;;;;6.57;2.63;;;;;;;;;;4992755;28;20049;-80
2020/12/23 14:39:56;;;;;;;7.30;3.08;;;;;;;;;;4991696;28;20383;-80
2020/12/23 14:42:24;;;;;;;4.80;2.88;;;;;;;;;;4990869;28;20053;-80
2020/12/23 14:44:50;;;;;;;6.72;2.95;;;;;;;;;;4991895;28;20533;-80
2020/12/23 14:47:16;;;;;;;8.18;3.08;;;;;;;;;;4976773;28;20042;-78
2020/12/23 14:49:42;;;;;;;4.55;2.58;;;;;;;;;;4976403;28;20077;-79
2020/12/23 14:52:09;;;;;;;5.05;2.25;;;;;;;;;;4994081;28;20042;-78
2020/12/23 14:54:34;;;;;;;4.95;2.63;;;;;;;;;;4986855;28;20117;-81
2020/12/23 14:57:01;;;;;;;5.38;2.60;;;;;;;;;;5012234;28;20050;-80
2020/12/23 14:59:27;;;;;;;5.68;2.90;;;;;;;;;;5010049;28;20054;-80
2020/12/23 15:01:53;;;;;;;5.57;2.80;;;;;;;;;;4969081;28;20144;-78
2020/12/23 15:04:21;;;;;;;7.93;3.30;;;;;;;;;;4975529;28;20106;-78
2020/12/23 15:06:48;;;;;;;6.28;3.10;;;;;;;;;;4993536;28;20058;-78
2020/12/23 15:09:17;;;;;;;11.68;3.28;;;;;;;;;;4991973;28;20053;-79
2020/12/23 15:11:43;;;;;;;7.22;3.47;;;;;;;;;;4993668;28;20518;-78
2020/12/23 15:14:09;;;;;;;8.13;3.67;;;;;;;;;;4992458;28;20718;-80
2020/12/23 15:16:38;;;;;;;6.65;3.60;;;;;;;;;;4996065;28;20018;-80
2020/12/23 15:19:04;;;;;;;6.97;3.33;;;;;;;;;;4998603;28;20042;-81
2020/12/23 15:21:30;;;;;;;8.77;3.25;;;;;;;;;;4997260;28;20046;-79
2020/12/23 15:23:57;;;;;;;5.75;3.28;;;;;;;;;;4997444;28;20088;-80
2020/12/23 15:26:23;;;;;;;8.98;3.20;;;;;;;;;;4969015;28;20038;-80
2020/12/23 15:28:49;;;;;;;6.07;3.22;;;;;;;;;;5000464;28;20042;-78
2020/12/23 15:31:17;;;;;;;7.43;3.05;;;;;;;;;;5000932;28;20057;-80
2020/12/23 15:33:44;;;;;;;3.65;2.05;;;;;;;;;;4982129;28;20537;-80
2020/12/23 15:36:10;;;;;;;4.93;1.77;;;;;;;;;;5003471;28;20266;-81
2020/12/23 15:38:37;;;;;;;4.38;1.90;;;;;;;;;;4984474;28;20050;-80
2020/12/23 15:41:04;;;;;;;4.47;1.98;;;;;;;;;;4998417;28;20057;-78
2020/12/23 15:43:30;;;;;;;5.60;2.20;;;;;;;;;;4978076;28;20485;-79
2020/12/23 15:46:00;;;;;;;5.93;2.47;;;;;;;;;;4996500;28;20039;-79
2020/12/23 15:48:30;;;;;;;5.13;2.33;;;;;;;;;;5003066;28;20039;-80
2020/12/23 15:50:56;;;;;;;6.97;2.28;;;;;;;;;;4998672;28;20046;-80
2020/12/23 15:53:22;;;;;;;4.50;1.95;;;;;;;;;;4978839;28;20049;-79
2020/12/23 15:55:48;;;;;;;4.20;2.58;;;;;;;;;;4997605;28;20042;-80
2020/12/23 15:58:15;;;;;;;3.28;2.30;;;;;;;;;;4964250;28;20043;-80
2020/12/23 16:00:41;;;;;;;8.45;3.30;;;;;;;;;;5004301;28;20510;-82
2020/12/23 16:03:07;;;;;;;6.78;3.05;;;;;;;;;;5005752;28;20103;-81
2020/12/23 16:05:34;;;;;;;5.45;3.80;;;;;;;;;;4999263;28;20509;-81
2020/12/23 16:08:00;;;;;;;6.25;4.43;;;;;;;;;;4993456;28;20042;-78
2020/12/23 16:10:26;;;;;;;5.00;2.80;;;;;;;;;;4996049;28;20049;-78
2020/12/23 16:12:52;;;;;;;4.40;2.90;;;;;;;;;;4996458;28;20434;-79
2020/12/23 16:15:21;;;;;;;5.30;2.88;;;;;;;;;;4985472;28;20410;-79
2020/12/23 16:17:48;;;;;;;4.63;1.63;;;;;;;;;;4996617;28;20358;-79
2020/12/23 16:20:14;;;;;;;4.95;1.60;;;;;;;;;;4997394;28;20045;-79
2020/12/23 16:22:40;;;;;;;6.72;1.80;;;;;;;;;;4997713;28;20125;-79
2020/12/23 16:25:06;;;;;;;3.97;1.73;;;;;;;;;;5012213;28;20046;-78
2020/12/23 16:27:33;;;;;;;5.18;1.35;;;;;;;;;;5012145;28;20039;-80
2020/12/23 16:29:59;;;;;;;7.78;1.67;;;;;;;;;;5005910;28;20042;-79
2020/12/23 16:32:25;;;;;;;4.03;1.60;;;;;;;;;;5010011;28;20051;-80
2020/12/23 16:34:51;;;;;;;7.53;1.77;;;;;;;;;;5010994;28;20037;-80
2020/12/23 16:37:17;;;;;;;4.82;1.88;;;;;;;;;;5012959;28;20043;-80
2020/12/23 16:39:44;;;;;;;3.22;1.80;;;;;;;;;;5014144;28;20046;-80
2020/12/23 16:42:11;;;;;;;3.70;1.60;;;;;;;;;;5009444;28;20096;-80
2020/12/23 16:44:38;;;;;;;6.55;2.10;;;;;;;;;;4999297;28;20056;-79
2020/12/23 16:47:06;;;;;;;4.25;1.90;;;;;;;;;;4994513;28;20046;-80
2020/12/23 16:49:33;;;;;;;5.47;1.85;;;;;;;;;;4995243;28;20050;-79
2020/12/23 16:51:59;;;;;;;4.95;1.92;;;;;;;;;;4999544;28;20517;-79
2020/12/23 16:54:26;;;;;;;3.80;1.85;;;;;;;;;;4994610;28;20141;-79
2020/12/23 16:56:53;;;;;;;3.58;2.20;;;;;;;;;;4994418;28;20035;-78
2020/12/23 16:59:20;;;;;;;5.22;2.95;;;;;;;;;;4994014;28;20053;-78
2020/12/23 17:01:46;;;;;;;5.50;2.85;;;;;;;;;;4994492;28;20043;-79
2020/12/23 17:04:12;;;;;;;3.90;2.80;;;;;;;;;;4995691;28;20053;-80
2020/12/23 17:06:38;;;;;;;6.00;3.10;;;;;;;;;;4993805;28;20038;-78
2020/12/23 17:09:05;;;;;;;4.80;3.17;;;;;;;;;;4996502;28;20042;-78
2020/12/23 17:11:31;;;;;;;5.43;3.40;;;;;;;;;;4994583;28;20054;-80
2020/12/23 17:13:59;;;;;;;9.32;3.60;;;;;;;;;;4992860;28;20058;-79
2020/12/23 17:16:27;;;;;;;10.95;3.92;;;;;;;;;;4995096;28;20046;-81
2020/12/23 17:18:53;;;;;;;6.35;4.20;;;;;;;;;;4993976;28;20566;-79
2020/12/23 17:21:23;;;;;;;7.18;4.03;;;;;;;;;;4995039;28;20110;-80
2020/12/23 17:23:50;;;;;;;7.90;3.95;;;;;;;;;;4994369;28;20053;-79
2020/12/23 17:26:17;;;;;;;8.20;4.95;;;;;;;;;;4996053;28;20124;-80
2020/12/23 17:28:45;;;;;;;10.95;5.50;;;;;;;;;;4995967;28;20035;-80
2020/12/23 17:31:11;;;;;;;9.23;5.28;;;;;;;;;;4996747;28;20218;-79
2020/12/23 17:33:38;;;;;;;7.43;4.65;;;;;;;;;;4995480;28;20125;-79
2020/12/23 17:36:04;;;;;;;10.30;5.15;;;;;;;;;;4994310;28;20085;-81
2020/12/23 17:38:30;;;;;;;10.95;4.75;;;;;;;;;;4977046;28;20053;-80
2020/12/23 17:40:57;;;;;;;7.22;4.63;;;;;;;;;;4977430;28;20074;-78
2020/12/23 17:43:23;;;;;;;8.25;4.65;;;;;;;;;;4978030;28;20043;-79
2020/12/23 17:45:49;;;;;;;9.93;4.38;;;;;;;;;;4979801;28;20118;-78
2020/12/23 17:48:17;;;;;;;7.18;4.72;;;;;;;;;;4977422;28;20039;-78
2020/12/23 17:50:44;;;;;;;8.65;4.90;;;;;;;;;;4974106;28;20058;-79
2020/12/23 17:53:11;;;;;;;9.55;5.20;;;;;;;;;;4969213;28;20137;-79